sensor_id;sensor_type;location;lat;lon;timestamp;P1;durP1;ratioP1;P2;durP2;ratioP2
65461;SDS011;53236;43.666;18.444;2023-05-29T00:00:16;10.50;;;5.67;;
65461;SDS011;53236;43.666;18.444;2023-05-29T00:02:43;10.40;;;6.60;;
65461;SDS011;53236;43.666;18.444;2023-05-29T00:05:13;9.97;;;6.10;;
65461;SDS011;53236;43.666;18.444;2023-05-29T00:07:39;9.73;;;6.13;;
65461;SDS011;53236;43.666;18.444;2023-05-29T00:10:06;8.13;;;5.93;;
65461;SDS011;53236;43.666;18.444;2023-05-29T00:12:33;8.30;;;5.50;;
65461;SDS011;53236;43.666;18.444;2023-05-29T00:14:59;9.13;;;5.67;;
65461;SDS011;53236;43.666;18.444;2023-05-29T00:17:26;8.07;;;5.53;;
65461;SDS011;53236;43.666;18.444;2023-05-29T00:19:51;8.67;;;6.10;;
65461;SDS011;53236;43.666;18.444;2023-05-29T00:22:17;13.33;;;5.80;;
65461;SDS011;53236;43.666;18.444;2023-05-29T00:24:44;10.03;;;6.10;;
65461;SDS011;53236;43.666;18.444;2023-05-29T00:27:10;11.37;;;6.07;;
65461;SDS011;53236;43.666;18.444;2023-05-29T00:29:37;11.43;;;6.23;;
65461;SDS011;53236;43.666;18.444;2023-05-29T00:32:04;8.27;;;5.47;;
65461;SDS011;53236;43.666;18.444;2023-05-29T00:34:30;8.13;;;5.37;;
65461;SDS011;53236;43.666;18.444;2023-05-29T00:36:56;12.63;;;6.13;;
65461;SDS011;53236;43.666;18.444;2023-05-29T00:39:22;10.07;;;5.73;;
65461;SDS011;53236;43.666;18.444;2023-05-29T00:41:48;10.77;;;5.60;;
65461;SDS011;53236;43.666;18.444;2023-05-29T00:44:20;16.33;;;6.30;;
65461;SDS011;53236;43.666;18.444;2023-05-29T00:46:46;14.60;;;6.40;;
65461;SDS011;53236;43.666;18.444;2023-05-29T00:49:16;10.60;;;5.97;;
65461;SDS011;53236;43.666;18.444;2023-05-29T00:51:42;7.83;;;5.67;;
65461;SDS011;53236;43.666;18.444;2023-05-29T00:54:11;11.40;;;6.17;;
65461;SDS011;53236;43.666;18.444;2023-05-29T00:56:41;10.70;;;5.97;;
65461;SDS011;53236;43.666;18.444;2023-05-29T00:59:10;10.37;;;6.20;;
65461;SDS011;53236;43.666;18.444;2023-05-29T01:01:37;10.03;;;6.83;;
65461;SDS011;53236;43.666;18.444;2023-05-29T01:04:05;12.10;;;8.60;;
65461;SDS011;53236;43.666;18.444;2023-05-29T01:06:32;12.20;;;8.27;;
65461;SDS011;53236;43.666;18.444;2023-05-29T01:08:58;12.40;;;8.30;;
65461;SDS011;53236;43.666;18.444;2023-05-29T01:13:54;13.87;;;8.80;;
65461;SDS011;53236;43.666;18.444;2023-05-29T01:16:57;11.40;;;7.50;;
65461;SDS011;53236;43.666;18.444;2023-05-29T01:22:18;11.43;;;6.63;;
65461;SDS011;53236;43.666;18.444;2023-05-29T01:27:41;8.33;;;5.70;;
65461;SDS011;53236;43.666;18.444;2023-05-29T01:30:10;9.67;;;5.97;;
65461;SDS011;53236;43.666;18.444;2023-05-29T01:32:38;8.40;;;5.33;;
65461;SDS011;53236;43.666;18.444;2023-05-29T01:35:05;12.27;;;5.63;;
65461;SDS011;53236;43.666;18.444;2023-05-29T01:37:31;8.63;;;5.43;;
65461;SDS011;53236;43.666;18.444;2023-05-29T01:39:57;7.80;;;5.27;;
65461;SDS011;53236;43.666;18.444;2023-05-29T01:42:23;5.90;;;4.73;;
65461;SDS011;53236;43.666;18.444;2023-05-29T01:44:50;6.80;;;5.20;;
65461;SDS011;53236;43.666;18.444;2023-05-29T01:47:16;6.57;;;4.77;;
65461;SDS011;53236;43.666;18.444;2023-05-29T01:49:43;9.50;;;5.17;;
65461;SDS011;53236;43.666;18.444;2023-05-29T01:52:09;7.70;;;5.37;;
65461;SDS011;53236;43.666;18.444;2023-05-29T01:54:35;8.07;;;5.67;;
65461;SDS011;53236;43.666;18.444;2023-05-29T01:57:01;10.37;;;5.87;;
65461;SDS011;53236;43.666;18.444;2023-05-29T01:59:28;10.63;;;6.23;;
65461;SDS011;53236;43.666;18.444;2023-05-29T02:01:55;9.90;;;5.87;;
65461;SDS011;53236;43.666;18.444;2023-05-29T02:04:20;13.43;;;6.50;;
65461;SDS011;53236;43.666;18.444;2023-05-29T02:06:46;7.80;;;5.67;;
65461;SDS011;53236;43.666;18.444;2023-05-29T02:09:12;8.57;;;5.50;;
65461;SDS011;53236;43.666;18.444;2023-05-29T02:11:38;11.23;;;5.87;;
65461;SDS011;53236;43.666;18.444;2023-05-29T02:14:09;14.83;;;6.17;;
65461;SDS011;53236;43.666;18.444;2023-05-29T02:16:35;8.70;;;6.53;;
65461;SDS011;53236;43.666;18.444;2023-05-29T02:19:01;15.83;;;6.37;;
65461;SDS011;53236;43.666;18.444;2023-05-29T02:21:27;16.87;;;6.70;;
65461;SDS011;53236;43.666;18.444;2023-05-29T02:23:52;10.40;;;6.00;;
65461;SDS011;53236;43.666;18.444;2023-05-29T02:26:18;8.40;;;6.27;;
65461;SDS011;53236;43.666;18.444;2023-05-29T02:28:44;7.13;;;5.47;;
65461;SDS011;53236;43.666;18.444;2023-05-29T02:31:10;7.70;;;5.57;;
65461;SDS011;53236;43.666;18.444;2023-05-29T02:33:36;26.40;;;6.97;;
65461;SDS011;53236;43.666;18.444;2023-05-29T02:36:02;7.53;;;5.90;;
65461;SDS011;53236;43.666;18.444;2023-05-29T02:38:28;9.93;;;6.60;;
65461;SDS011;53236;43.666;18.444;2023-05-29T02:40:54;24.93;;;7.07;;
65461;SDS011;53236;43.666;18.444;2023-05-29T02:43:21;31.70;;;7.57;;
65461;SDS011;53236;43.666;18.444;2023-05-29T02:45:47;10.10;;;6.57;;
65461;SDS011;53236;43.666;18.444;2023-05-29T02:48:12;26.37;;;7.50;;
65461;SDS011;53236;43.666;18.444;2023-05-29T02:50:38;10.30;;;6.37;;
65461;SDS011;53236;43.666;18.444;2023-05-29T02:53:04;28.90;;;8.33;;
65461;SDS011;53236;43.666;18.444;2023-05-29T02:55:30;8.70;;;6.43;;
65461;SDS011;53236;43.666;18.444;2023-05-29T02:57:57;33.60;;;8.20;;
65461;SDS011;53236;43.666;18.444;2023-05-29T03:00:24;10.37;;;7.17;;
65461;SDS011;53236;43.666;18.444;2023-05-29T03:02:51;9.93;;;6.77;;
65461;SDS011;53236;43.666;18.444;2023-05-29T03:05:17;23.90;;;7.43;;
65461;SDS011;53236;43.666;18.444;2023-05-29T03:07:43;18.60;;;7.00;;
65461;SDS011;53236;43.666;18.444;2023-05-29T03:10:09;9.80;;;7.17;;
65461;SDS011;53236;43.666;18.444;2023-05-29T03:12:35;13.43;;;7.63;;
65461;SDS011;53236;43.666;18.444;2023-05-29T03:15:01;13.30;;;7.93;;
65461;SDS011;53236;43.666;18.444;2023-05-29T03:17:28;11.53;;;7.87;;
65461;SDS011;53236;43.666;18.444;2023-05-29T03:19:54;11.60;;;7.23;;
65461;SDS011;53236;43.666;18.444;2023-05-29T03:22:20;20.97;;;7.57;;
65461;SDS011;53236;43.666;18.444;2023-05-29T03:24:46;16.90;;;7.63;;
65461;SDS011;53236;43.666;18.444;2023-05-29T03:27:12;14.20;;;6.93;;
65461;SDS011;53236;43.666;18.444;2023-05-29T03:29:38;8.20;;;6.47;;
65461;SDS011;53236;43.666;18.444;2023-05-29T03:32:03;12.90;;;7.17;;
65461;SDS011;53236;43.666;18.444;2023-05-29T03:34:29;11.07;;;6.57;;
65461;SDS011;53236;43.666;18.444;2023-05-29T03:36:56;28.80;;;7.27;;
65461;SDS011;53236;43.666;18.444;2023-05-29T03:39:22;11.30;;;6.73;;
65461;SDS011;53236;43.666;18.444;2023-05-29T03:41:48;8.70;;;6.40;;
65461;SDS011;53236;43.666;18.444;2023-05-29T03:44:14;7.77;;;5.87;;
65461;SDS011;53236;43.666;18.444;2023-05-29T03:46:40;15.70;;;6.63;;
65461;SDS011;53236;43.666;18.444;2023-05-29T03:49:06;9.27;;;5.73;;
65461;SDS011;53236;43.666;18.444;2023-05-29T03:51:32;7.50;;;5.73;;
65461;SDS011;53236;43.666;18.444;2023-05-29T03:53:58;13.13;;;6.17;;
65461;SDS011;53236;43.666;18.444;2023-05-29T03:56:23;39.13;;;7.37;;
65461;SDS011;53236;43.666;18.444;2023-05-29T03:58:49;18.57;;;6.43;;
65461;SDS011;53236;43.666;18.444;2023-05-29T04:01:15;22.33;;;6.37;;
65461;SDS011;53236;43.666;18.444;2023-05-29T04:03:41;8.33;;;5.53;;
65461;SDS011;53236;43.666;18.444;2023-05-29T04:06:09;12.87;;;5.80;;
65461;SDS011;53236;43.666;18.444;2023-05-29T04:08:34;13.10;;;5.90;;
65461;SDS011;53236;43.666;18.444;2023-05-29T04:11:00;9.13;;;5.57;;
65461;SDS011;53236;43.666;18.444;2023-05-29T04:13:28;9.40;;;6.87;;
65461;SDS011;53236;43.666;18.444;2023-05-29T04:15:54;9.33;;;6.30;;
65461;SDS011;53236;43.666;18.444;2023-05-29T04:18:20;7.80;;;5.50;;
65461;SDS011;53236;43.666;18.444;2023-05-29T04:20:46;8.20;;;6.27;;
65461;SDS011;53236;43.666;18.444;2023-05-29T04:23:12;8.03;;;5.70;;
65461;SDS011;53236;43.666;18.444;2023-05-29T04:25:39;8.13;;;5.57;;
65461;SDS011;53236;43.666;18.444;2023-05-29T04:28:04;9.10;;;5.90;;
65461;SDS011;53236;43.666;18.444;2023-05-29T04:30:30;8.57;;;5.47;;
65461;SDS011;53236;43.666;18.444;2023-05-29T04:32:58;6.13;;;4.77;;
65461;SDS011;53236;43.666;18.444;2023-05-29T04:35:24;8.33;;;5.53;;
65461;SDS011;53236;43.666;18.444;2023-05-29T04:37:50;7.43;;;5.20;;
65461;SDS011;53236;43.666;18.444;2023-05-29T04:40:18;6.93;;;5.20;;
65461;SDS011;53236;43.666;18.444;2023-05-29T04:42:45;9.43;;;5.10;;
65461;SDS011;53236;43.666;18.444;2023-05-29T04:45:11;17.57;;;13.40;;
65461;SDS011;53236;43.666;18.444;2023-05-29T04:47:37;8.70;;;6.00;;
65461;SDS011;53236;43.666;18.444;2023-05-29T04:50:09;6.30;;;5.13;;
65461;SDS011;53236;43.666;18.444;2023-05-29T04:52:38;9.40;;;5.87;;
65461;SDS011;53236;43.666;18.444;2023-05-29T04:55:04;9.27;;;6.33;;
65461;SDS011;53236;43.666;18.444;2023-05-29T04:57:30;8.87;;;6.73;;
65461;SDS011;53236;43.666;18.444;2023-05-29T04:59:56;10.07;;;6.40;;
65461;SDS011;53236;43.666;18.444;2023-05-29T05:02:22;7.93;;;5.57;;
65461;SDS011;53236;43.666;18.444;2023-05-29T05:04:48;7.90;;;5.77;;
65461;SDS011;53236;43.666;18.444;2023-05-29T05:07:14;8.23;;;6.03;;
65461;SDS011;53236;43.666;18.444;2023-05-29T05:09:41;8.07;;;5.60;;
65461;SDS011;53236;43.666;18.444;2023-05-29T05:12:07;8.57;;;5.70;;
65461;SDS011;53236;43.666;18.444;2023-05-29T05:14:33;8.23;;;5.87;;
65461;SDS011;53236;43.666;18.444;2023-05-29T05:16:59;7.87;;;6.10;;
65461;SDS011;53236;43.666;18.444;2023-05-29T05:19:25;9.63;;;5.27;;
65461;SDS011;53236;43.666;18.444;2023-05-29T05:21:51;8.13;;;6.40;;
65461;SDS011;53236;43.666;18.444;2023-05-29T05:24:16;8.37;;;5.97;;
65461;SDS011;53236;43.666;18.444;2023-05-29T05:26:42;8.00;;;6.30;;
65461;SDS011;53236;43.666;18.444;2023-05-29T05:29:08;8.40;;;6.00;;
65461;SDS011;53236;43.666;18.444;2023-05-29T05:31:34;9.00;;;5.37;;
65461;SDS011;53236;43.666;18.444;2023-05-29T05:34:00;8.53;;;5.93;;
65461;SDS011;53236;43.666;18.444;2023-05-29T05:36:26;6.90;;;5.10;;
65461;SDS011;53236;43.666;18.444;2023-05-29T05:38:52;8.30;;;5.60;;
65461;SDS011;53236;43.666;18.444;2023-05-29T05:41:18;6.97;;;5.67;;
65461;SDS011;53236;43.666;18.444;2023-05-29T05:43:43;8.90;;;5.40;;
65461;SDS011;53236;43.666;18.444;2023-05-29T05:46:09;7.03;;;4.47;;
65461;SDS011;53236;43.666;18.444;2023-05-29T05:48:35;7.53;;;4.67;;
65461;SDS011;53236;43.666;18.444;2023-05-29T05:51:01;6.13;;;4.60;;
65461;SDS011;53236;43.666;18.444;2023-05-29T05:53:27;9.73;;;5.37;;
65461;SDS011;53236;43.666;18.444;2023-05-29T05:55:53;7.93;;;5.20;;
65461;SDS011;53236;43.666;18.444;2023-05-29T05:58:19;6.80;;;4.97;;
65461;SDS011;53236;43.666;18.444;2023-05-29T06:00:45;9.90;;;5.13;;
65461;SDS011;53236;43.666;18.444;2023-05-29T06:03:11;7.03;;;5.23;;
65461;SDS011;53236;43.666;18.444;2023-05-29T06:05:37;7.17;;;5.60;;
65461;SDS011;53236;43.666;18.444;2023-05-29T06:08:05;6.33;;;5.40;;
65461;SDS011;53236;43.666;18.444;2023-05-29T06:10:33;8.80;;;6.10;;
65461;SDS011;53236;43.666;18.444;2023-05-29T06:12:59;8.43;;;6.37;;
65461;SDS011;53236;43.666;18.444;2023-05-29T06:15:24;9.43;;;6.47;;
65461;SDS011;53236;43.666;18.444;2023-05-29T06:17:50;9.70;;;7.10;;
65461;SDS011;53236;43.666;18.444;2023-05-29T06:20:17;10.50;;;7.30;;
65461;SDS011;53236;43.666;18.444;2023-05-29T06:22:44;8.97;;;6.03;;
65461;SDS011;53236;43.666;18.444;2023-05-29T06:25:15;8.80;;;6.03;;
65461;SDS011;53236;43.666;18.444;2023-05-29T06:27:41;9.33;;;6.67;;
65461;SDS011;53236;43.666;18.444;2023-05-29T06:30:07;9.47;;;6.47;;
65461;SDS011;53236;43.666;18.444;2023-05-29T06:32:34;12.43;;;7.53;;
65461;SDS011;53236;43.666;18.444;2023-05-29T06:34:59;10.87;;;7.17;;
65461;SDS011;53236;43.666;18.444;2023-05-29T06:37:25;12.47;;;8.47;;
65461;SDS011;53236;43.666;18.444;2023-05-29T06:39:51;9.73;;;7.20;;
65461;SDS011;53236;43.666;18.444;2023-05-29T06:42:17;11.93;;;7.27;;
65461;SDS011;53236;43.666;18.444;2023-05-29T06:44:42;10.93;;;7.33;;
65461;SDS011;53236;43.666;18.444;2023-05-29T06:47:08;11.47;;;7.40;;
65461;SDS011;53236;43.666;18.444;2023-05-29T06:49:34;11.93;;;8.77;;
65461;SDS011;53236;43.666;18.444;2023-05-29T06:52:00;9.95;;;6.45;;
65461;SDS011;53236;43.666;18.444;2023-05-29T06:54:26;9.38;;;6.72;;
65461;SDS011;53236;43.666;18.444;2023-05-29T06:56:52;10.77;;;6.45;;
65461;SDS011;53236;43.666;18.444;2023-05-29T06:59:18;9.10;;;6.75;;
65461;SDS011;53236;43.666;18.444;2023-05-29T07:01:45;10.00;;;7.57;;
65461;SDS011;53236;43.666;18.444;2023-05-29T07:04:11;10.70;;;7.65;;
65461;SDS011;53236;43.666;18.444;2023-05-29T07:06:37;9.32;;;7.40;;
65461;SDS011;53236;43.666;18.444;2023-05-29T07:09:03;8.82;;;6.68;;
65461;SDS011;53236;43.666;18.444;2023-05-29T07:11:29;9.85;;;6.97;;
65461;SDS011;53236;43.666;18.444;2023-05-29T07:13:55;10.45;;;6.72;;
65461;SDS011;53236;43.666;18.444;2023-05-29T07:16:21;8.45;;;6.80;;
65461;SDS011;53236;43.666;18.444;2023-05-29T07:18:47;12.18;;;8.15;;
65461;SDS011;53236;43.666;18.444;2023-05-29T07:21:13;10.32;;;8.13;;
65461;SDS011;53236;43.666;18.444;2023-05-29T07:23:39;13.55;;;8.60;;
65461;SDS011;53236;43.666;18.444;2023-05-29T07:26:05;9.80;;;7.47;;
65461;SDS011;53236;43.666;18.444;2023-05-29T07:28:31;11.30;;;7.97;;
65461;SDS011;53236;43.666;18.444;2023-05-29T07:30:56;9.02;;;6.55;;
65461;SDS011;53236;43.666;18.444;2023-05-29T07:33:22;11.75;;;7.13;;
65461;SDS011;53236;43.666;18.444;2023-05-29T07:35:48;11.18;;;7.57;;
65461;SDS011;53236;43.666;18.444;2023-05-29T07:38:14;11.55;;;7.85;;
65461;SDS011;53236;43.666;18.444;2023-05-29T07:40:40;13.50;;;7.63;;
65461;SDS011;53236;43.666;18.444;2023-05-29T07:43:06;12.27;;;7.72;;
65461;SDS011;53236;43.666;18.444;2023-05-29T07:45:32;10.02;;;7.72;;
65461;SDS011;53236;43.666;18.444;2023-05-29T07:47:58;9.77;;;7.75;;
65461;SDS011;53236;43.666;18.444;2023-05-29T07:50:23;12.60;;;8.40;;
65461;SDS011;53236;43.666;18.444;2023-05-29T07:52:49;11.90;;;8.52;;
65461;SDS011;53236;43.666;18.444;2023-05-29T07:55:15;13.85;;;8.23;;
65461;SDS011;53236;43.666;18.444;2023-05-29T07:57:41;12.57;;;8.50;;
65461;SDS011;53236;43.666;18.444;2023-05-29T08:00:07;10.82;;;8.55;;
65461;SDS011;53236;43.666;18.444;2023-05-29T08:02:34;9.70;;;7.32;;
65461;SDS011;53236;43.666;18.444;2023-05-29T08:05:02;9.75;;;7.88;;
65461;SDS011;53236;43.666;18.444;2023-05-29T08:07:28;10.48;;;7.55;;
65461;SDS011;53236;43.666;18.444;2023-05-29T08:09:54;9.02;;;7.00;;
65461;SDS011;53236;43.666;18.444;2023-05-29T08:12:20;12.00;;;7.53;;
65461;SDS011;53236;43.666;18.444;2023-05-29T08:14:46;8.82;;;6.45;;
65461;SDS011;53236;43.666;18.444;2023-05-29T08:17:12;10.05;;;7.47;;
65461;SDS011;53236;43.666;18.444;2023-05-29T08:19:38;10.40;;;6.65;;
65461;SDS011;53236;43.666;18.444;2023-05-29T08:22:03;9.93;;;7.35;;
65461;SDS011;53236;43.666;18.444;2023-05-29T08:24:30;8.52;;;5.97;;
65461;SDS011;53236;43.666;18.444;2023-05-29T08:26:56;9.35;;;6.90;;
65461;SDS011;53236;43.666;18.444;2023-05-29T08:29:23;10.48;;;6.68;;
65461;SDS011;53236;43.666;18.444;2023-05-29T08:31:49;9.35;;;6.90;;
65461;SDS011;53236;43.666;18.444;2023-05-29T08:34:14;9.88;;;6.93;;
65461;SDS011;53236;43.666;18.444;2023-05-29T08:36:40;9.30;;;6.50;;
65461;SDS011;53236;43.666;18.444;2023-05-29T08:39:06;7.95;;;5.47;;
65461;SDS011;53236;43.666;18.444;2023-05-29T08:44:04;6.57;;;5.15;;
65461;SDS011;53236;43.666;18.444;2023-05-29T08:46:32;7.20;;;4.78;;
65461;SDS011;53236;43.666;18.444;2023-05-29T08:48:59;5.05;;;3.70;;
65461;SDS011;53236;43.666;18.444;2023-05-29T08:51:27;5.50;;;3.80;;
65461;SDS011;53236;43.666;18.444;2023-05-29T08:53:59;4.95;;;3.40;;
65461;SDS011;53236;43.666;18.444;2023-05-29T08:56:25;12.48;;;3.70;;
65461;SDS011;53236;43.666;18.444;2023-05-29T08:58:51;5.40;;;3.42;;
65461;SDS011;53236;43.666;18.444;2023-05-29T09:01:18;5.35;;;3.60;;
65461;SDS011;53236;43.666;18.444;2023-05-29T09:03:46;5.22;;;3.72;;
65461;SDS011;53236;43.666;18.444;2023-05-29T09:06:12;8.45;;;5.53;;
65461;SDS011;53236;43.666;18.444;2023-05-29T09:08:38;7.00;;;3.58;;
65461;SDS011;53236;43.666;18.444;2023-05-29T09:11:04;5.35;;;3.75;;
65461;SDS011;53236;43.666;18.444;2023-05-29T09:13:30;4.32;;;3.30;;
65461;SDS011;53236;43.666;18.444;2023-05-29T09:15:59;4.85;;;3.28;;
65461;SDS011;53236;43.666;18.444;2023-05-29T09:18:28;5.88;;;3.70;;
65461;SDS011;53236;43.666;18.444;2023-05-29T09:20:55;5.45;;;3.03;;
65461;SDS011;53236;43.666;18.444;2023-05-29T09:23:21;5.32;;;3.67;;
65461;SDS011;53236;43.666;18.444;2023-05-29T09:25:50;4.35;;;2.90;;
65461;SDS011;53236;43.666;18.444;2023-05-29T09:28:23;4.18;;;2.80;;
65461;SDS011;53236;43.666;18.444;2023-05-29T09:30:50;4.32;;;3.17;;
65461;SDS011;53236;43.666;18.444;2023-05-29T09:33:16;4.03;;;3.08;;
65461;SDS011;53236;43.666;18.444;2023-05-29T09:35:46;4.22;;;3.25;;
65461;SDS011;53236;43.666;18.444;2023-05-29T09:38:17;8.73;;;3.42;;
65461;SDS011;53236;43.666;18.444;2023-05-29T09:40:44;4.30;;;3.17;;
65461;SDS011;53236;43.666;18.444;2023-05-29T09:45:48;5.82;;;3.55;;
65461;SDS011;53236;43.666;18.444;2023-05-29T09:48:15;4.53;;;3.10;;
65461;SDS011;53236;43.666;18.444;2023-05-29T09:50:48;4.18;;;3.05;;
65461;SDS011;53236;43.666;18.444;2023-05-29T09:55:48;5.43;;;3.50;;
65461;SDS011;53236;43.666;18.444;2023-05-29T09:58:17;5.18;;;3.40;;
65461;SDS011;53236;43.666;18.444;2023-05-29T10:00:43;5.93;;;3.53;;
65461;SDS011;53236;43.666;18.444;2023-05-29T10:03:10;5.93;;;3.60;;
65461;SDS011;53236;43.666;18.444;2023-05-29T10:05:40;4.70;;;3.22;;
65461;SDS011;53236;43.666;18.444;2023-05-29T10:08:08;4.78;;;3.47;;
65461;SDS011;53236;43.666;18.444;2023-05-29T10:10:40;5.88;;;3.35;;
65461;SDS011;53236;43.666;18.444;2023-05-29T10:13:11;6.63;;;3.00;;
65461;SDS011;53236;43.666;18.444;2023-05-29T10:15:40;4.95;;;3.22;;
65461;SDS011;53236;43.666;18.444;2023-05-29T10:18:09;6.57;;;3.22;;
65461;SDS011;53236;43.666;18.444;2023-05-29T10:20:41;4.70;;;3.30;;
65461;SDS011;53236;43.666;18.444;2023-05-29T10:23:10;5.80;;;3.53;;
65461;SDS011;53236;43.666;18.444;2023-05-29T10:25:37;5.75;;;3.33;;
65461;SDS011;53236;43.666;18.444;2023-05-29T10:28:06;4.82;;;3.22;;
65461;SDS011;53236;43.666;18.444;2023-05-29T10:36:26;4.97;;;3.30;;
65461;SDS011;53236;43.666;18.444;2023-05-29T10:39:01;6.10;;;2.80;;
65461;SDS011;53236;43.666;18.444;2023-05-29T10:43:54;4.63;;;3.22;;
65461;SDS011;53236;43.666;18.444;2023-05-29T10:46:21;4.85;;;3.05;;
65461;SDS011;53236;43.666;18.444;2023-05-29T10:51:40;4.55;;;3.10;;
65461;SDS011;53236;43.666;18.444;2023-05-29T10:54:06;4.47;;;3.08;;
65461;SDS011;53236;43.666;18.444;2023-05-29T10:56:32;4.40;;;3.20;;
65461;SDS011;53236;43.666;18.444;2023-05-29T10:58:58;4.45;;;2.83;;
65461;SDS011;53236;43.666;18.444;2023-05-29T11:01:27;4.75;;;2.97;;
65461;SDS011;53236;43.666;18.444;2023-05-29T11:04:00;5.10;;;3.35;;
65461;SDS011;53236;43.666;18.444;2023-05-29T11:06:42;5.88;;;3.33;;
65461;SDS011;53236;43.666;18.444;2023-05-29T11:09:28;5.75;;;2.90;;
65461;SDS011;53236;43.666;18.444;2023-05-29T11:15:07;4.38;;;3.00;;
65461;SDS011;53236;43.666;18.444;2023-05-29T11:20:05;5.22;;;2.70;;
65461;SDS011;53236;43.666;18.444;2023-05-29T11:25:14;5.75;;;2.67;;
65461;SDS011;53236;43.666;18.444;2023-05-29T11:27:40;4.78;;;2.65;;
65461;SDS011;53236;43.666;18.444;2023-05-29T11:30:08;4.18;;;2.78;;
65461;SDS011;53236;43.666;18.444;2023-05-29T11:32:36;4.45;;;2.83;;
65461;SDS011;53236;43.666;18.444;2023-05-29T11:35:09;5.72;;;3.00;;
65461;SDS011;53236;43.666;18.444;2023-05-29T11:37:35;6.00;;;2.75;;
65461;SDS011;53236;43.666;18.444;2023-05-29T11:40:05;5.05;;;2.80;;
65461;SDS011;53236;43.666;18.444;2023-05-29T11:42:35;3.13;;;2.38;;
65461;SDS011;53236;43.666;18.444;2023-05-29T11:45:15;6.70;;;2.60;;
65461;SDS011;53236;43.666;18.444;2023-05-29T11:47:51;4.28;;;2.67;;
65461;SDS011;53236;43.666;18.444;2023-05-29T11:50:21;6.93;;;2.45;;
65461;SDS011;53236;43.666;18.444;2023-05-29T11:52:47;5.55;;;2.78;;
65461;SDS011;53236;43.666;18.444;2023-05-29T11:55:13;4.10;;;2.35;;
65461;SDS011;53236;43.666;18.444;2023-05-29T11:57:39;5.22;;;3.00;;
65461;SDS011;53236;43.666;18.444;2023-05-29T12:00:06;5.15;;;2.65;;
65461;SDS011;53236;43.666;18.444;2023-05-29T12:02:33;5.68;;;2.72;;
65461;SDS011;53236;43.666;18.444;2023-05-29T12:05:02;3.25;;;2.38;;
65461;SDS011;53236;43.666;18.444;2023-05-29T12:07:29;5.35;;;2.60;;
65461;SDS011;53236;43.666;18.444;2023-05-29T12:09:55;3.75;;;2.35;;
65461;SDS011;53236;43.666;18.444;2023-05-29T12:12:23;3.17;;;2.20;;
65461;SDS011;53236;43.666;18.444;2023-05-29T12:14:51;4.82;;;2.35;;
65461;SDS011;53236;43.666;18.444;2023-05-29T12:17:18;3.53;;;2.30;;
65461;SDS011;53236;43.666;18.444;2023-05-29T12:19:45;4.97;;;2.53;;
65461;SDS011;53236;43.666;18.444;2023-05-29T12:22:11;5.55;;;3.20;;
65461;SDS011;53236;43.666;18.444;2023-05-29T12:24:37;5.25;;;2.67;;
65461;SDS011;53236;43.666;18.444;2023-05-29T12:27:03;4.53;;;2.90;;
65461;SDS011;53236;43.666;18.444;2023-05-29T12:29:35;7.45;;;3.00;;
65461;SDS011;53236;43.666;18.444;2023-05-29T12:32:01;4.55;;;3.25;;
65461;SDS011;53236;43.666;18.444;2023-05-29T12:34:26;5.97;;;3.40;;
65461;SDS011;53236;43.666;18.444;2023-05-29T12:37:06;6.57;;;3.58;;
65461;SDS011;53236;43.666;18.444;2023-05-29T12:39:35;4.60;;;3.28;;
65461;SDS011;53236;43.666;18.444;2023-05-29T12:42:01;4.57;;;3.22;;
65461;SDS011;53236;43.666;18.444;2023-05-29T12:44:27;7.60;;;4.55;;
65461;SDS011;53236;43.666;18.444;2023-05-29T12:46:55;5.90;;;4.28;;
65461;SDS011;53236;43.666;18.444;2023-05-29T12:49:22;6.55;;;4.07;;
65461;SDS011;53236;43.666;18.444;2023-05-29T12:51:50;7.25;;;4.63;;
65461;SDS011;53236;43.666;18.444;2023-05-29T12:54:17;8.38;;;4.97;;
65461;SDS011;53236;43.666;18.444;2023-05-29T12:56:43;10.32;;;5.28;;
65461;SDS011;53236;43.666;18.444;2023-05-29T12:59:11;8.80;;;5.40;;
65461;SDS011;53236;43.666;18.444;2023-05-29T13:01:37;7.15;;;5.40;;
65461;SDS011;53236;43.666;18.444;2023-05-29T13:04:04;7.65;;;5.20;;
65461;SDS011;53236;43.666;18.444;2023-05-29T13:06:34;7.72;;;4.60;;
65461;SDS011;53236;43.666;18.444;2023-05-29T13:09:00;8.52;;;5.13;;
65461;SDS011;53236;43.666;18.444;2023-05-29T13:11:26;7.85;;;5.70;;
65461;SDS011;53236;43.666;18.444;2023-05-29T13:13:52;6.43;;;4.60;;
65461;SDS011;53236;43.666;18.444;2023-05-29T13:16:17;8.25;;;5.13;;
65461;SDS011;53236;43.666;18.444;2023-05-29T13:18:43;7.28;;;4.70;;
65461;SDS011;53236;43.666;18.444;2023-05-29T13:21:09;7.40;;;5.25;;
65461;SDS011;53236;43.666;18.444;2023-05-29T13:23:36;11.00;;;5.70;;
65461;SDS011;53236;43.666;18.444;2023-05-29T13:26:03;12.05;;;5.57;;
65461;SDS011;53236;43.666;18.444;2023-05-29T13:28:29;6.95;;;5.57;;
65461;SDS011;53236;43.666;18.444;2023-05-29T13:30:55;8.38;;;5.43;;
65461;SDS011;53236;43.666;18.444;2023-05-29T13:33:20;5.93;;;4.57;;
65461;SDS011;53236;43.666;18.444;2023-05-29T13:35:46;7.55;;;4.90;;
65461;SDS011;53236;43.666;18.444;2023-05-29T13:38:12;10.23;;;5.35;;
65461;SDS011;53236;43.666;18.444;2023-05-29T13:40:38;6.45;;;4.80;;
65461;SDS011;53236;43.666;18.444;2023-05-29T13:43:04;6.90;;;4.80;;
65461;SDS011;53236;43.666;18.444;2023-05-29T13:45:30;7.63;;;4.88;;
65461;SDS011;53236;43.666;18.444;2023-05-29T13:47:56;8.23;;;4.78;;
65461;SDS011;53236;43.666;18.444;2023-05-29T13:50:21;6.57;;;4.60;;
65461;SDS011;53236;43.666;18.444;2023-05-29T13:52:49;6.13;;;4.43;;
65461;SDS011;53236;43.666;18.444;2023-05-29T13:55:15;7.95;;;4.90;;
65461;SDS011;53236;43.666;18.444;2023-05-29T13:57:41;5.35;;;3.85;;
65461;SDS011;53236;43.666;18.444;2023-05-29T14:00:11;8.15;;;4.60;;
65461;SDS011;53236;43.666;18.444;2023-05-29T14:02:37;8.15;;;4.88;;
65461;SDS011;53236;43.666;18.444;2023-05-29T14:05:03;6.85;;;4.32;;
65461;SDS011;53236;43.666;18.444;2023-05-29T14:07:31;8.40;;;4.38;;
65461;SDS011;53236;43.666;18.444;2023-05-29T14:09:56;6.72;;;4.28;;
65461;SDS011;53236;43.666;18.444;2023-05-29T14:12:22;6.80;;;4.18;;
65461;SDS011;53236;43.666;18.444;2023-05-29T14:14:48;5.35;;;3.95;;
65461;SDS011;53236;43.666;18.444;2023-05-29T14:17:14;7.57;;;4.75;;
65461;SDS011;53236;43.666;18.444;2023-05-29T14:19:40;7.25;;;4.35;;
65461;SDS011;53236;43.666;18.444;2023-05-29T14:22:06;7.05;;;4.90;;
65461;SDS011;53236;43.666;18.444;2023-05-29T14:24:32;8.05;;;3.72;;
65461;SDS011;53236;43.666;18.444;2023-05-29T14:27:01;5.75;;;3.25;;
65461;SDS011;53236;43.666;18.444;2023-05-29T14:29:27;5.60;;;3.67;;
65461;SDS011;53236;43.666;18.444;2023-05-29T14:31:53;5.95;;;3.60;;
65461;SDS011;53236;43.666;18.444;2023-05-29T14:34:18;5.50;;;3.55;;
65461;SDS011;53236;43.666;18.444;2023-05-29T14:36:44;5.88;;;3.50;;
65461;SDS011;53236;43.666;18.444;2023-05-29T14:39:10;4.45;;;3.10;;
65461;SDS011;53236;43.666;18.444;2023-05-29T14:41:37;3.85;;;2.75;;
65461;SDS011;53236;43.666;18.444;2023-05-29T14:44:03;6.05;;;3.33;;
65461;SDS011;53236;43.666;18.444;2023-05-29T14:46:29;7.70;;;3.47;;
65461;SDS011;53236;43.666;18.444;2023-05-29T14:49:00;3.80;;;2.80;;
65461;SDS011;53236;43.666;18.444;2023-05-29T14:51:26;7.20;;;3.92;;
65461;SDS011;53236;43.666;18.444;2023-05-29T14:53:52;4.90;;;3.72;;
65461;SDS011;53236;43.666;18.444;2023-05-29T14:56:18;5.72;;;3.35;;
65461;SDS011;53236;43.666;18.444;2023-05-29T14:58:44;4.38;;;3.08;;
65461;SDS011;53236;43.666;18.444;2023-05-29T15:01:11;5.43;;;3.45;;
65461;SDS011;53236;43.666;18.444;2023-05-29T15:03:37;7.10;;;3.88;;